createdAt,value
2022-12-11T00:02:25.547Z,100.00
2022-12-11T00:04:53.082Z,100.00
2022-12-11T00:07:20.491Z,100.00
2022-12-11T00:09:47.920Z,100.00
2022-12-11T00:12:15.371Z,100.00
2022-12-11T00:14:42.774Z,100.00
2022-12-11T00:17:10.575Z,100.00
2022-12-11T00:19:38.023Z,100.00
2022-12-11T00:22:05.437Z,100.00
2022-12-11T00:24:32.975Z,100.00
2022-12-11T00:27:00.457Z,100.00
2022-12-11T00:29:27.824Z,100.00
2022-12-11T00:31:55.286Z,100.00
2022-12-11T00:34:22.766Z,100.00
2022-12-11T00:36:50.320Z,100.00
2022-12-11T00:39:17.744Z,100.00
2022-12-11T00:41:45.204Z,100.00
2022-12-11T00:44:12.588Z,100.00
2022-12-11T00:46:40.078Z,100.00
2022-12-11T00:49:07.437Z,100.00
2022-12-11T00:51:34.807Z,100.00
2022-12-11T00:54:02.170Z,100.00
2022-12-11T00:56:30.120Z,100.00
2022-12-11T00:58:57.546Z,100.00
2022-12-11T01:01:25.646Z,100.00
2022-12-11T01:03:53.239Z,100.00
2022-12-11T01:06:23.093Z,100.00
2022-12-11T01:09:11.387Z,100.00
2022-12-11T01:11:40.185Z,100.00
2022-12-11T01:14:09.424Z,100.00
2022-12-11T01:16:37.130Z,100.00
2022-12-11T01:19:04.576Z,100.00
2022-12-11T01:21:32.059Z,100.00
2022-12-11T01:23:59.826Z,100.00
2022-12-11T01:26:27.216Z,100.00
2022-12-11T01:28:54.634Z,100.00
2022-12-11T01:31:22.352Z,100.00
2022-12-11T01:33:49.768Z,100.00
2022-12-11T01:36:19.735Z,100.00
2022-12-11T01:38:48.371Z,100.00
2022-12-11T01:41:16.439Z,100.00
2022-12-11T01:44:16.234Z,100.00
2022-12-11T01:46:43.692Z,100.00
2022-12-11T01:49:12.961Z,100.00
2022-12-11T01:51:52.493Z,100.00
2022-12-11T01:54:21.125Z,100.00
2022-12-11T01:56:48.736Z,100.00
2022-12-11T01:59:17.897Z,100.00
2022-12-11T02:01:54.895Z,100.00
2022-12-11T02:04:22.326Z,100.00
2022-12-11T02:06:50.975Z,100.00
2022-12-11T02:09:27.337Z,100.00
2022-12-11T02:12:04.289Z,100.00
2022-12-11T02:14:57.127Z,100.00
2022-12-11T02:17:38.814Z,100.00
2022-12-11T02:20:21.857Z,100.00
2022-12-11T02:23:13.645Z,100.00
2022-12-11T02:25:52.753Z,100.00
2022-12-11T02:28:35.413Z,100.00
2022-12-11T02:31:36.662Z,100.00
2022-12-11T02:34:16.197Z,100.00
2022-12-11T02:36:47.037Z,100.00
2022-12-11T02:39:15.174Z,100.00
2022-12-11T02:41:44.376Z,100.00
2022-12-11T02:44:12.360Z,100.00
2022-12-11T02:46:40.224Z,100.00
2022-12-11T02:49:07.596Z,100.00
2022-12-11T02:51:37.875Z,100.00
2022-12-11T02:54:06.004Z,100.00
2022-12-11T02:56:37.141Z,100.00
2022-12-11T02:59:11.230Z,100.00
2022-12-11T03:01:38.681Z,100.00
2022-12-11T03:04:06.218Z,100.00
2022-12-11T03:06:40.036Z,100.00
2022-12-11T03:09:07.457Z,100.00
2022-12-11T03:11:34.839Z,100.00
2022-12-11T03:14:05.720Z,100.00
2022-12-11T03:16:41.077Z,100.00
2022-12-11T03:19:14.497Z,100.00
2022-12-11T03:21:45.286Z,100.00
2022-12-11T03:24:23.981Z,100.00
2022-12-11T03:26:56.883Z,100.00
2022-12-11T03:30:00.857Z,100.00
2022-12-11T03:32:31.113Z,100.00
2022-12-11T03:35:19.351Z,100.00
2022-12-11T03:37:46.653Z,100.00
2022-12-11T03:40:16.342Z,100.00
2022-12-11T03:42:45.023Z,100.00
2022-12-11T03:45:12.534Z,100.00
2022-12-11T03:47:40.092Z,100.00
2022-12-11T03:50:08.814Z,100.00
2022-12-11T03:52:39.679Z,100.00
2022-12-11T03:55:10.147Z,100.00
2022-12-11T03:57:37.962Z,100.00
2022-12-11T04:00:14.176Z,100.00
2022-12-11T04:02:42.277Z,100.00
2022-12-11T04:05:10.253Z,100.00
2022-12-11T04:07:38.171Z,100.00
2022-12-11T04:10:06.855Z,100.00
2022-12-11T04:12:34.867Z,100.00
2022-12-11T04:15:02.413Z,100.00
2022-12-11T04:17:49.783Z,100.00
2022-12-11T04:20:35.640Z,100.00
2022-12-11T04:23:25.289Z,100.00
2022-12-11T04:25:52.707Z,100.00
2022-12-11T04:28:20.046Z,100.00
2022-12-11T04:30:50.638Z,100.00
2022-12-11T04:33:18.020Z,100.00
2022-12-11T04:35:45.622Z,100.00
2022-12-11T04:38:13.103Z,100.00
2022-12-11T04:40:40.467Z,100.00
2022-12-11T04:43:07.821Z,100.00
2022-12-11T04:45:35.371Z,100.00
2022-12-11T04:48:03.451Z,100.00
2022-12-11T04:50:31.039Z,100.00
2022-12-11T04:52:58.464Z,100.00
2022-12-11T04:55:26.152Z,100.00
2022-12-11T04:57:53.588Z,100.00
2022-12-11T05:00:23.026Z,100.00
2022-12-11T05:02:50.980Z,100.00
2022-12-11T05:05:18.509Z,100.00
2022-12-11T05:07:47.054Z,100.00
2022-12-11T05:10:14.471Z,100.00
2022-12-11T05:12:41.854Z,100.00
2022-12-11T05:15:11.218Z,100.00
2022-12-11T05:17:39.043Z,100.00
2022-12-11T05:20:07.281Z,100.00
2022-12-11T05:22:35.108Z,100.00
2022-12-11T05:25:02.460Z,100.00
2022-12-11T05:27:30.102Z,100.00
2022-12-11T05:29:59.612Z,100.00
2022-12-11T05:32:27.241Z,100.00
2022-12-11T05:34:54.539Z,100.00
2022-12-11T05:37:21.933Z,100.00
2022-12-11T05:39:49.612Z,100.00
2022-12-11T05:42:17.031Z,100.00
2022-12-11T05:44:44.412Z,100.00
2022-12-11T05:47:11.731Z,100.00
2022-12-11T05:49:39.264Z,100.00
2022-12-11T05:52:06.596Z,100.00
2022-12-11T05:54:34.032Z,100.00
2022-12-11T05:57:01.531Z,100.00
2022-12-11T05:59:29.324Z,100.00
2022-12-11T06:01:57.023Z,100.00
2022-12-11T06:04:24.517Z,100.00
2022-12-11T06:06:54.484Z,100.00
2022-12-11T06:09:21.871Z,100.00
2022-12-11T06:11:49.273Z,100.00
2022-12-11T06:14:16.681Z,100.00
2022-12-11T06:16:44.100Z,100.00
2022-12-11T06:19:15.258Z,100.00
2022-12-11T06:21:42.698Z,100.00
2022-12-11T06:24:11.102Z,100.00
2022-12-11T06:26:38.595Z,100.00
2022-12-11T06:29:09.159Z,100.00
2022-12-11T06:31:40.429Z,100.00
2022-12-11T06:34:08.880Z,100.00
2022-12-11T06:36:36.479Z,100.00
2022-12-11T06:39:04.265Z,100.00
2022-12-11T06:41:31.884Z,100.00
2022-12-11T06:43:59.217Z,100.00
2022-12-11T06:46:27.018Z,100.00
2022-12-11T06:48:54.580Z,100.00
2022-12-11T06:51:22.606Z,100.00
2022-12-11T06:53:54.547Z,100.00
2022-12-11T06:56:22.578Z,100.00
2022-12-11T06:58:50.253Z,100.00
2022-12-11T07:01:23.113Z,100.00
2022-12-11T07:03:53.662Z,100.00
2022-12-11T07:06:21.321Z,100.00
2022-12-11T07:08:49.167Z,100.00
2022-12-11T07:11:17.115Z,100.00
2022-12-11T07:13:45.621Z,100.00
2022-12-11T07:16:13.861Z,100.00
2022-12-11T07:18:44.212Z,100.00
2022-12-11T07:21:12.672Z,100.00
2022-12-11T07:23:40.569Z,100.00
2022-12-11T07:26:10.041Z,100.00
2022-12-11T07:28:37.596Z,100.00
2022-12-11T07:31:08.998Z,100.00
2022-12-11T07:33:36.249Z,100.00
2022-12-11T07:36:04.549Z,100.00
2022-12-11T07:38:31.954Z,100.00
2022-12-11T07:41:06.407Z,100.00
2022-12-11T07:43:34.566Z,100.00
2022-12-11T07:46:03.113Z,100.00
2022-12-11T07:48:30.648Z,100.00
2022-12-11T07:51:15.239Z,100.00
2022-12-11T07:53:43.719Z,100.00
2022-12-11T07:56:11.270Z,100.00
2022-12-11T07:58:39.098Z,100.00
2022-12-11T08:01:10.418Z,100.00
2022-12-11T08:03:37.983Z,100.00
2022-12-11T08:06:05.727Z,100.00
2022-12-11T08:08:33.248Z,100.00
2022-12-11T08:11:04.429Z,100.00
2022-12-11T08:13:32.049Z,100.00
2022-12-11T08:15:59.507Z,100.00
2022-12-11T08:18:26.848Z,100.00
2022-12-11T08:20:54.363Z,100.00
2022-12-11T08:23:22.318Z,100.00
2022-12-11T08:25:49.714Z,100.00
2022-12-11T08:28:17.149Z,100.00
2022-12-11T08:30:44.551Z,100.00
2022-12-11T08:33:12.036Z,100.00
2022-12-11T08:35:40.042Z,100.00
2022-12-11T08:38:07.423Z,100.00
2022-12-11T08:40:35.034Z,100.00
2022-12-11T08:43:02.664Z,100.00
2022-12-11T08:45:30.080Z,100.00
2022-12-11T08:47:59.092Z,100.00
2022-12-11T08:50:27.036Z,100.00
2022-12-11T08:52:54.896Z,100.00
2022-12-11T08:55:22.331Z,100.00
2022-12-11T08:57:49.654Z,100.00
2022-12-11T09:00:18.565Z,100.00
2022-12-11T09:02:45.945Z,100.00
2022-12-11T09:05:13.689Z,100.00
2022-12-11T09:07:41.939Z,100.00
2022-12-11T09:10:10.188Z,100.00
2022-12-11T09:12:40.301Z,100.00
2022-12-11T09:15:08.301Z,100.00
2022-12-11T09:17:36.115Z,100.00
2022-12-11T09:20:04.081Z,100.00
2022-12-11T09:22:33.759Z,100.00
2022-12-11T09:25:01.309Z,100.00
2022-12-11T09:27:29.405Z,100.00
2022-12-11T09:29:57.848Z,100.00
2022-12-11T09:32:25.269Z,100.00
2022-12-11T09:34:52.772Z,100.00
2022-12-11T09:37:20.227Z,100.00
2022-12-11T09:39:47.580Z,100.00
2022-12-11T09:42:53.426Z,100.00
2022-12-11T09:45:20.872Z,100.00
2022-12-11T09:47:50.567Z,100.00
2022-12-11T09:50:30.109Z,100.00
2022-12-11T09:53:08.878Z,100.00
2022-12-11T09:55:50.463Z,100.00
2022-12-11T09:58:51.550Z,100.00
2022-12-11T10:01:40.922Z,100.00
2022-12-11T10:04:11.557Z,100.00
2022-12-11T10:07:22.698Z,100.00
2022-12-11T10:10:01.551Z,100.00
2022-12-11T10:12:41.167Z,100.00
2022-12-11T10:15:11.699Z,100.00
2022-12-11T10:17:39.775Z,100.00
2022-12-11T10:20:39.359Z,100.00
2022-12-11T10:23:08.236Z,100.00
2022-12-11T10:25:37.950Z,100.00
2022-12-11T10:28:15.676Z,100.00
2022-12-11T10:30:55.475Z,100.00
2022-12-11T10:33:28.060Z,100.00
2022-12-11T10:35:56.744Z,100.00
2022-12-11T10:38:30.913Z,100.00
2022-12-11T10:40:59.415Z,100.00
2022-12-11T10:43:51.203Z,100.00
2022-12-11T10:46:25.132Z,100.00
2022-12-11T10:48:59.625Z,100.00
2022-12-11T10:51:33.564Z,100.00
2022-12-11T10:54:07.409Z,100.00
2022-12-11T10:56:35.757Z,100.00
2022-12-11T10:59:03.214Z,100.00
2022-12-11T11:01:31.734Z,100.00
2022-12-11T11:04:06.951Z,100.00
2022-12-11T11:06:34.512Z,100.00
2022-12-11T11:09:02.078Z,100.00
2022-12-11T11:11:35.065Z,100.00
2022-12-11T11:14:19.234Z,100.00
2022-12-11T11:16:48.044Z,100.00
2022-12-11T11:19:23.024Z,100.00
2022-12-11T11:21:52.561Z,100.00
2022-12-11T11:24:26.954Z,100.00
2022-12-11T11:27:12.751Z,100.00
2022-12-11T11:29:41.743Z,100.00
2022-12-11T11:32:21.157Z,100.00
2022-12-11T11:34:48.734Z,100.00
2022-12-11T11:37:32.568Z,100.00
2022-12-11T11:40:22.665Z,100.00
2022-12-11T11:43:08.899Z,100.00
2022-12-11T11:45:53.854Z,100.00
2022-12-11T11:48:40.260Z,100.00
2022-12-11T11:51:16.924Z,100.00
2022-12-11T11:53:47.793Z,100.00
2022-12-11T11:56:17.996Z,100.00
2022-12-11T11:58:52.734Z,100.00
2022-12-11T12:01:20.169Z,100.00
2022-12-11T12:03:47.891Z,100.00
2022-12-11T12:06:53.741Z,100.00
2022-12-11T12:09:44.934Z,100.00
2022-12-11T12:12:18.230Z,100.00
2022-12-11T12:15:14.301Z,100.00
2022-12-11T12:18:05.676Z,100.00
2022-12-11T12:20:44.791Z,100.00
2022-12-11T12:23:36.292Z,100.00
2022-12-11T12:26:21.636Z,100.00
2022-12-11T12:29:10.049Z,100.00
2022-12-11T12:31:55.463Z,100.00
2022-12-11T12:34:34.681Z,100.00
2022-12-11T12:37:45.851Z,100.00
2022-12-11T12:40:16.846Z,100.00
2022-12-11T12:43:39.906Z,100.00
2022-12-11T12:46:33.066Z,100.00
2022-12-11T12:49:00.459Z,100.00
2022-12-11T12:51:27.982Z,100.00
2022-12-11T12:53:59.689Z,100.00
2022-12-11T12:56:27.974Z,100.00
2022-12-11T12:58:55.531Z,100.00
2022-12-11T13:01:25.053Z,100.00
2022-12-11T13:03:59.434Z,100.00
2022-12-11T13:06:32.030Z,100.00
2022-12-11T13:09:12.394Z,100.00
2022-12-11T13:11:39.942Z,100.00
2022-12-11T13:14:15.415Z,100.00
2022-12-11T13:16:49.211Z,100.00
2022-12-11T13:19:26.357Z,100.00
2022-12-11T13:22:15.448Z,100.00
2022-12-11T13:24:49.966Z,100.00
2022-12-11T13:27:37.290Z,100.00
2022-12-11T13:30:22.497Z,100.00
2022-12-11T13:33:03.853Z,100.00
2022-12-11T13:35:32.139Z,100.00
2022-12-11T13:38:04.808Z,100.00
2022-12-11T13:40:39.231Z,100.00
2022-12-11T13:43:15.014Z,100.00
2022-12-11T13:45:52.190Z,100.00
2022-12-11T13:48:39.987Z,100.00
2022-12-11T13:51:07.634Z,100.00
2022-12-11T13:53:35.221Z,100.00
2022-12-11T13:56:08.565Z,100.00
2022-12-11T13:58:38.927Z,100.00
2022-12-11T14:01:07.860Z,100.00
2022-12-11T14:03:35.429Z,100.00
2022-12-11T14:06:03.083Z,100.00
2022-12-11T14:08:37.427Z,100.00
2022-12-11T14:11:05.135Z,100.00
2022-12-11T14:13:34.698Z,100.00
2022-12-11T14:16:02.195Z,100.00
2022-12-11T14:18:33.925Z,100.00
2022-12-11T14:21:02.112Z,100.00
2022-12-11T14:23:34.228Z,100.00
2022-12-11T14:26:21.126Z,100.00
2022-12-11T14:28:48.575Z,100.00
2022-12-11T14:31:18.468Z,100.00
2022-12-11T14:33:52.011Z,100.00
2022-12-11T14:36:19.783Z,99.86
2022-12-11T14:38:54.414Z,99.95
2022-12-11T14:41:27.607Z,100.00
2022-12-11T14:43:58.154Z,100.00
2022-12-11T14:46:38.591Z,99.72
2022-12-11T14:49:29.672Z,99.44
2022-12-11T14:52:00.206Z,99.30
2022-12-11T14:54:39.118Z,99.32
2022-12-11T14:57:06.796Z,99.37
2022-12-11T14:59:40.877Z,98.98
2022-12-11T15:02:32.615Z,98.67
2022-12-11T15:05:12.789Z,98.97
2022-12-11T15:07:42.334Z,98.61
2022-12-11T15:10:22.966Z,98.93
2022-12-11T15:12:51.005Z,98.91
2022-12-11T15:15:18.674Z,98.64
2022-12-11T15:17:52.452Z,98.97
2022-12-11T15:20:27.922Z,98.91
2022-12-11T15:22:57.360Z,98.57
2022-12-11T15:25:27.941Z,98.54
2022-12-11T15:27:57.227Z,98.56
2022-12-11T15:30:29.305Z,98.61
2022-12-11T15:33:09.253Z,98.38
2022-12-11T15:35:37.027Z,98.62
2022-12-11T15:38:04.515Z,98.85
2022-12-11T15:40:32.086Z,98.59
2022-12-11T15:43:01.328Z,98.78
2022-12-11T15:45:29.119Z,98.93
2022-12-11T15:47:57.332Z,99.16
2022-12-11T15:50:26.110Z,99.84
2022-12-11T15:52:54.404Z,100.00
2022-12-11T15:55:22.555Z,100.00
2022-12-11T15:57:58.292Z,100.00
2022-12-11T16:00:27.777Z,100.00
2022-12-11T16:02:55.863Z,100.00
2022-12-11T16:05:23.860Z,100.00
2022-12-11T16:07:53.484Z,100.00
2022-12-11T16:10:21.384Z,100.00
2022-12-11T16:12:48.895Z,100.00
2022-12-11T16:15:22.778Z,100.00
2022-12-11T16:17:50.934Z,100.00
2022-12-11T16:20:18.476Z,100.00
2022-12-11T16:22:45.865Z,100.00
2022-12-11T16:25:13.642Z,100.00
2022-12-11T16:27:41.305Z,100.00
2022-12-11T16:30:10.773Z,100.00
2022-12-11T16:32:38.364Z,100.00
2022-12-11T16:35:06.043Z,100.00
2022-12-11T16:37:33.636Z,100.00
2022-12-11T16:40:01.513Z,100.00
2022-12-11T16:42:29.013Z,100.00
2022-12-11T16:44:58.740Z,100.00
2022-12-11T16:47:26.187Z,100.00
2022-12-11T16:49:53.697Z,100.00
2022-12-11T16:52:22.415Z,100.00
2022-12-11T16:54:49.965Z,100.00
2022-12-11T16:57:17.564Z,100.00
2022-12-11T16:59:44.965Z,100.00
2022-12-11T17:02:15.728Z,100.00
2022-12-11T17:04:43.192Z,100.00
2022-12-11T17:07:10.589Z,100.00
2022-12-11T17:09:38.376Z,100.00
2022-12-11T17:12:06.142Z,100.00
2022-12-11T17:14:33.726Z,100.00
2022-12-11T17:17:01.073Z,100.00
2022-12-11T17:19:28.497Z,100.00
2022-12-11T17:21:56.993Z,100.00
2022-12-11T17:24:24.349Z,100.00
2022-12-11T17:26:51.788Z,100.00
2022-12-11T17:29:20.041Z,100.00
2022-12-11T17:31:47.601Z,100.00
2022-12-11T17:34:15.979Z,100.00
2022-12-11T17:36:43.557Z,100.00
2022-12-11T17:39:11.188Z,100.00
2022-12-11T17:41:38.737Z,100.00
2022-12-11T17:44:06.127Z,100.00
2022-12-11T17:46:34.297Z,100.00
2022-12-11T17:49:05.084Z,100.00
2022-12-11T17:51:32.550Z,100.00
2022-12-11T17:53:59.901Z,100.00
2022-12-11T17:56:27.314Z,100.00
2022-12-11T17:58:54.746Z,100.00
2022-12-11T18:01:22.262Z,100.00
2022-12-11T18:03:49.778Z,100.00
2022-12-11T18:06:17.237Z,100.00
2022-12-11T18:08:46.119Z,100.00
2022-12-11T18:11:15.458Z,100.00
2022-12-11T18:13:43.625Z,100.00
2022-12-11T18:16:21.100Z,100.00
2022-12-11T18:18:48.715Z,100.00
2022-12-11T18:21:17.627Z,100.00
2022-12-11T18:23:45.281Z,100.00
2022-12-11T18:26:14.637Z,100.00
2022-12-11T18:28:42.332Z,100.00
2022-12-11T18:31:10.493Z,100.00
2022-12-11T18:33:38.248Z,100.00
2022-12-11T18:36:06.112Z,100.00
2022-12-11T18:38:33.724Z,100.00
2022-12-11T18:41:05.574Z,100.00
2022-12-11T18:43:32.913Z,100.00
2022-12-11T18:46:00.217Z,100.00
2022-12-11T18:48:27.624Z,100.00
2022-12-11T18:50:55.975Z,100.00
2022-12-11T18:53:23.388Z,100.00
2022-12-11T18:55:53.488Z,100.00
2022-12-11T18:58:24.553Z,100.00
2022-12-11T19:00:52.114Z,100.00
2022-12-11T19:03:19.508Z,100.00
2022-12-11T19:05:47.132Z,100.00
2022-12-11T19:08:16.206Z,100.00
2022-12-11T19:10:44.815Z,100.00
2022-12-11T19:13:12.757Z,100.00
2022-12-11T19:15:43.642Z,100.00
2022-12-11T19:18:11.209Z,100.00
2022-12-11T19:21:04.647Z,100.00
2022-12-11T19:23:27.140Z,100.00
2022-12-11T19:25:54.981Z,100.00
2022-12-11T19:28:23.253Z,100.00
2022-12-11T19:30:50.853Z,100.00
2022-12-11T19:33:18.341Z,100.00
2022-12-11T19:35:45.792Z,100.00
2022-12-11T19:38:13.511Z,100.00
2022-12-11T19:40:42.135Z,100.00
2022-12-11T19:43:09.806Z,100.00
2022-12-11T19:45:37.454Z,100.00
2022-12-11T19:48:05.122Z,100.00
2022-12-11T19:50:34.541Z,100.00
2022-12-11T19:53:01.930Z,100.00
2022-12-11T19:55:29.449Z,100.00
2022-12-11T19:57:57.377Z,100.00
2022-12-11T20:00:24.965Z,100.00
2022-12-11T20:02:52.424Z,100.00
2022-12-11T20:05:20.001Z,100.00
2022-12-11T20:07:47.559Z,100.00
2022-12-11T20:10:15.882Z,100.00
2022-12-11T20:12:45.257Z,100.00
2022-12-11T20:15:13.408Z,100.00
2022-12-11T20:17:44.632Z,100.00
2022-12-11T20:20:12.091Z,100.00
2022-12-11T20:22:40.480Z,100.00
2022-12-11T20:25:08.340Z,100.00
2022-12-11T20:27:35.939Z,100.00
2022-12-11T20:30:05.003Z,100.00
2022-12-11T20:32:34.274Z,100.00
2022-12-11T20:35:01.767Z,100.00
2022-12-11T20:37:29.379Z,100.00
2022-12-11T20:39:56.712Z,100.00
2022-12-11T20:42:24.106Z,100.00
2022-12-11T20:44:51.637Z,100.00
2022-12-11T20:47:22.734Z,100.00
2022-12-11T20:49:50.535Z,100.00
2022-12-11T20:52:18.634Z,100.00
2022-12-11T20:54:46.268Z,100.00
2022-12-11T20:57:16.506Z,100.00
2022-12-11T20:59:45.289Z,100.00
2022-12-11T21:02:13.127Z,100.00
2022-12-11T21:04:42.406Z,100.00
2022-12-11T21:07:10.190Z,100.00
2022-12-11T21:09:38.127Z,100.00
2022-12-11T21:12:05.912Z,100.00
2022-12-11T21:14:34.051Z,100.00
2022-12-11T21:17:01.634Z,100.00
2022-12-11T21:19:29.300Z,100.00
2022-12-11T21:21:56.941Z,100.00
2022-12-11T21:24:29.733Z,100.00
2022-12-11T21:26:58.344Z,100.00
2022-12-11T21:29:26.560Z,100.00
2022-12-11T21:31:53.955Z,100.00
2022-12-11T21:34:25.251Z,100.00
2022-12-11T21:36:56.765Z,100.00
2022-12-11T21:39:25.434Z,100.00
2022-12-11T21:41:53.053Z,100.00
2022-12-11T21:47:07.900Z,100.00
2022-12-11T21:49:35.422Z,100.00
2022-12-11T21:52:03.582Z,100.00
2022-12-11T21:54:30.978Z,100.00
2022-12-11T21:56:58.742Z,100.00
2022-12-11T21:59:26.300Z,100.00
2022-12-11T22:01:54.047Z,100.00
2022-12-11T22:04:21.484Z,100.00
2022-12-11T22:06:48.988Z,100.00
2022-12-11T22:09:16.834Z,100.00
2022-12-11T22:11:46.443Z,100.00
2022-12-11T22:14:15.083Z,100.00
2022-12-11T22:16:43.965Z,100.00
2022-12-11T22:19:11.769Z,100.00
2022-12-11T22:21:39.392Z,100.00
2022-12-11T22:24:07.178Z,100.00
2022-12-11T22:26:35.131Z,100.00
2022-12-11T22:29:02.517Z,100.00
2022-12-11T22:31:30.184Z,100.00
2022-12-11T22:33:57.690Z,100.00
2022-12-11T22:36:25.947Z,100.00
2022-12-11T22:38:55.720Z,100.00
2022-12-11T22:41:28.530Z,100.00
2022-12-11T22:43:56.607Z,100.00
2022-12-11T22:46:26.713Z,100.00
2022-12-11T22:48:54.493Z,100.00
2022-12-11T22:51:23.101Z,100.00
2022-12-11T22:53:50.499Z,100.00
2022-12-11T22:56:17.949Z,100.00
2022-12-11T22:58:45.368Z,100.00
2022-12-11T23:01:15.094Z,100.00
2022-12-11T23:03:42.616Z,100.00
2022-12-11T23:06:11.608Z,100.00
2022-12-11T23:08:39.649Z,100.00
2022-12-11T23:11:28.309Z,100.00
2022-12-11T23:13:55.906Z,100.00
2022-12-11T23:16:23.971Z,100.00
2022-12-11T23:18:51.590Z,100.00
2022-12-11T23:21:19.096Z,100.00
2022-12-11T23:23:46.564Z,100.00
2022-12-11T23:26:14.110Z,100.00
2022-12-11T23:28:41.940Z,100.00
2022-12-11T23:31:09.501Z,100.00
2022-12-11T23:33:37.152Z,100.00
2022-12-11T23:36:05.013Z,100.00
2022-12-11T23:38:32.573Z,100.00
2022-12-11T23:41:01.994Z,100.00
2022-12-11T23:43:29.599Z,100.00
2022-12-11T23:45:57.843Z,100.00
2022-12-11T23:48:27.231Z,100.00
2022-12-11T23:51:01.460Z,100.00
2022-12-11T23:53:29.107Z,100.00
2022-12-11T23:55:56.647Z,100.00
2022-12-11T23:58:24.022Z,100.00
